sensor_id;sensor_type;location;lat;lon;timestamp;P1;durP1;ratioP1;P2;durP2;ratioP2
7703;SDS011;3894;49.700;10.770;2023-06-19T00:01:34;10.35;;;7.88;;
7703;SDS011;3894;49.700;10.770;2023-06-19T00:04:00;10.88;;;7.45;;
7703;SDS011;3894;49.700;10.770;2023-06-19T00:06:25;10.30;;;7.25;;
7703;SDS011;3894;49.700;10.770;2023-06-19T00:08:53;12.00;;;7.93;;
7703;SDS011;3894;49.700;10.770;2023-06-19T00:11:18;10.75;;;7.55;;
7703;SDS011;3894;49.700;10.770;2023-06-19T00:13:44;12.20;;;7.22;;
7703;SDS011;3894;49.700;10.770;2023-06-19T00:16:10;9.95;;;7.32;;
7703;SDS011;3894;49.700;10.770;2023-06-19T00:18:36;10.75;;;8.32;;
7703;SDS011;3894;49.700;10.770;2023-06-19T00:21:05;11.15;;;7.28;;
7703;SDS011;3894;49.700;10.770;2023-06-19T00:23:33;11.10;;;7.45;;
7703;SDS011;3894;49.700;10.770;2023-06-19T00:25:59;11.20;;;7.05;;
7703;SDS011;3894;49.700;10.770;2023-06-19T00:28:28;10.32;;;7.93;;
7703;SDS011;3894;49.700;10.770;2023-06-19T00:30:56;10.05;;;7.20;;
7703;SDS011;3894;49.700;10.770;2023-06-19T00:33:22;12.45;;;7.28;;
7703;SDS011;3894;49.700;10.770;2023-06-19T00:35:53;9.45;;;7.55;;
7703;SDS011;3894;49.700;10.770;2023-06-19T00:38:20;11.27;;;7.65;;
7703;SDS011;3894;49.700;10.770;2023-06-19T00:40:49;10.05;;;7.55;;
7703;SDS011;3894;49.700;10.770;2023-06-19T00:43:14;10.75;;;7.85;;
7703;SDS011;3894;49.700;10.770;2023-06-19T00:45:42;10.25;;;7.63;;
7703;SDS011;3894;49.700;10.770;2023-06-19T00:48:08;9.75;;;7.45;;
7703;SDS011;3894;49.700;10.770;2023-06-19T00:50:34;10.55;;;7.35;;
7703;SDS011;3894;49.700;10.770;2023-06-19T00:52:59;12.48;;;7.88;;
7703;SDS011;3894;49.700;10.770;2023-06-19T00:55:28;10.77;;;7.47;;
7703;SDS011;3894;49.700;10.770;2023-06-19T00:57:57;11.70;;;7.78;;
7703;SDS011;3894;49.700;10.770;2023-06-19T01:00:25;10.88;;;7.75;;
7703;SDS011;3894;49.700;10.770;2023-06-19T01:02:55;11.90;;;7.40;;
7703;SDS011;3894;49.700;10.770;2023-06-19T01:05:21;11.60;;;7.80;;
7703;SDS011;3894;49.700;10.770;2023-06-19T01:10:26;10.25;;;7.40;;
7703;SDS011;3894;49.700;10.770;2023-06-19T01:13:02;9.75;;;7.40;;
7703;SDS011;3894;49.700;10.770;2023-06-19T01:15:36;11.45;;;7.57;;
7703;SDS011;3894;49.700;10.770;2023-06-19T01:18:03;10.07;;;7.18;;
7703;SDS011;3894;49.700;10.770;2023-06-19T01:20:32;10.30;;;7.35;;
7703;SDS011;3894;49.700;10.770;2023-06-19T01:23:08;9.45;;;6.85;;
7703;SDS011;3894;49.700;10.770;2023-06-19T01:25:35;9.52;;;6.80;;
7703;SDS011;3894;49.700;10.770;2023-06-19T01:28:03;10.73;;;7.47;;
7703;SDS011;3894;49.700;10.770;2023-06-19T01:30:31;10.80;;;6.90;;
7703;SDS011;3894;49.700;10.770;2023-06-19T01:32:58;9.73;;;6.80;;
7703;SDS011;3894;49.700;10.770;2023-06-19T01:35:30;10.68;;;7.43;;
7703;SDS011;3894;49.700;10.770;2023-06-19T01:38:00;9.02;;;6.60;;
7703;SDS011;3894;49.700;10.770;2023-06-19T01:40:27;10.15;;;7.13;;
7703;SDS011;3894;49.700;10.770;2023-06-19T01:42:56;12.02;;;7.30;;
7703;SDS011;3894;49.700;10.770;2023-06-19T01:45:26;11.88;;;8.15;;
7703;SDS011;3894;49.700;10.770;2023-06-19T01:47:53;9.35;;;6.78;;
7703;SDS011;3894;49.700;10.770;2023-06-19T01:50:18;9.90;;;6.78;;
7703;SDS011;3894;49.700;10.770;2023-06-19T01:52:46;9.85;;;6.65;;
7703;SDS011;3894;49.700;10.770;2023-06-19T01:55:11;9.23;;;6.97;;
7703;SDS011;3894;49.700;10.770;2023-06-19T01:57:38;10.80;;;7.18;;
7703;SDS011;3894;49.700;10.770;2023-06-19T02:00:04;9.32;;;7.20;;
7703;SDS011;3894;49.700;10.770;2023-06-19T02:02:35;11.60;;;7.70;;
7703;SDS011;3894;49.700;10.770;2023-06-19T02:05:01;10.10;;;7.63;;
7703;SDS011;3894;49.700;10.770;2023-06-19T02:07:29;10.55;;;7.18;;
7703;SDS011;3894;49.700;10.770;2023-06-19T02:09:55;9.80;;;6.82;;
7703;SDS011;3894;49.700;10.770;2023-06-19T02:14:48;13.13;;;7.57;;
7703;SDS011;3894;49.700;10.770;2023-06-19T02:17:14;9.20;;;6.88;;
7703;SDS011;3894;49.700;10.770;2023-06-19T02:19:40;10.73;;;7.38;;
7703;SDS011;3894;49.700;10.770;2023-06-19T02:22:07;9.98;;;6.93;;
7703;SDS011;3894;49.700;10.770;2023-06-19T02:24:32;11.05;;;8.43;;
7703;SDS011;3894;49.700;10.770;2023-06-19T02:27:00;10.55;;;7.82;;
7703;SDS011;3894;49.700;10.770;2023-06-19T02:29:27;10.27;;;7.45;;
7703;SDS011;3894;49.700;10.770;2023-06-19T02:31:54;11.13;;;7.78;;
7703;SDS011;3894;49.700;10.770;2023-06-19T02:34:21;9.65;;;7.03;;
7703;SDS011;3894;49.700;10.770;2023-06-19T02:36:49;10.73;;;7.20;;
7703;SDS011;3894;49.700;10.770;2023-06-19T02:39:16;11.68;;;7.93;;
7703;SDS011;3894;49.700;10.770;2023-06-19T02:41:43;11.57;;;7.30;;
7703;SDS011;3894;49.700;10.770;2023-06-19T02:44:12;10.30;;;7.50;;
7703;SDS011;3894;49.700;10.770;2023-06-19T02:46:39;11.20;;;7.03;;
7703;SDS011;3894;49.700;10.770;2023-06-19T02:49:05;11.27;;;7.25;;
7703;SDS011;3894;49.700;10.770;2023-06-19T02:51:31;10.10;;;7.25;;
7703;SDS011;3894;49.700;10.770;2023-06-19T02:53:56;11.07;;;7.85;;
7703;SDS011;3894;49.700;10.770;2023-06-19T02:56:22;11.32;;;7.88;;
7703;SDS011;3894;49.700;10.770;2023-06-19T02:58:49;11.65;;;7.93;;
7703;SDS011;3894;49.700;10.770;2023-06-19T03:01:14;9.77;;;6.78;;
7703;SDS011;3894;49.700;10.770;2023-06-19T03:03:40;10.68;;;7.22;;
7703;SDS011;3894;49.700;10.770;2023-06-19T03:06:06;9.05;;;7.03;;
7703;SDS011;3894;49.700;10.770;2023-06-19T03:08:33;10.75;;;7.07;;
7703;SDS011;3894;49.700;10.770;2023-06-19T03:11:00;10.98;;;8.02;;
7703;SDS011;3894;49.700;10.770;2023-06-19T03:13:25;9.95;;;7.70;;
7703;SDS011;3894;49.700;10.770;2023-06-19T03:15:51;11.45;;;7.88;;
7703;SDS011;3894;49.700;10.770;2023-06-19T03:18:17;11.00;;;8.52;;
7703;SDS011;3894;49.700;10.770;2023-06-19T03:20:42;10.23;;;6.90;;
7703;SDS011;3894;49.700;10.770;2023-06-19T03:23:08;10.98;;;7.78;;
7703;SDS011;3894;49.700;10.770;2023-06-19T03:25:33;10.05;;;7.22;;
7703;SDS011;3894;49.700;10.770;2023-06-19T03:28:00;11.50;;;8.10;;
7703;SDS011;3894;49.700;10.770;2023-06-19T03:30:27;11.30;;;7.85;;
7703;SDS011;3894;49.700;10.770;2023-06-19T03:32:53;12.10;;;7.40;;
7703;SDS011;3894;49.700;10.770;2023-06-19T03:35:19;11.32;;;7.88;;
7703;SDS011;3894;49.700;10.770;2023-06-19T03:37:45;11.32;;;7.28;;
7703;SDS011;3894;49.700;10.770;2023-06-19T03:40:14;12.15;;;7.95;;
7703;SDS011;3894;49.700;10.770;2023-06-19T03:42:41;12.02;;;8.00;;
7703;SDS011;3894;49.700;10.770;2023-06-19T03:45:06;10.90;;;7.38;;
7703;SDS011;3894;49.700;10.770;2023-06-19T03:47:32;11.48;;;7.78;;
7703;SDS011;3894;49.700;10.770;2023-06-19T03:49:58;11.20;;;8.63;;
7703;SDS011;3894;49.700;10.770;2023-06-19T03:52:23;12.07;;;8.48;;
7703;SDS011;3894;49.700;10.770;2023-06-19T03:54:49;10.90;;;7.90;;
7703;SDS011;3894;49.700;10.770;2023-06-19T03:57:14;11.40;;;8.35;;
7703;SDS011;3894;49.700;10.770;2023-06-19T03:59:40;12.57;;;8.45;;
7703;SDS011;3894;49.700;10.770;2023-06-19T04:02:05;10.48;;;7.78;;
7703;SDS011;3894;49.700;10.770;2023-06-19T04:04:32;11.38;;;8.07;;
7703;SDS011;3894;49.700;10.770;2023-06-19T04:06:58;10.75;;;7.93;;
7703;SDS011;3894;49.700;10.770;2023-06-19T04:09:26;12.02;;;7.80;;
7703;SDS011;3894;49.700;10.770;2023-06-19T04:11:51;12.57;;;8.20;;
7703;SDS011;3894;49.700;10.770;2023-06-19T04:14:17;12.50;;;8.73;;
7703;SDS011;3894;49.700;10.770;2023-06-19T04:16:43;11.38;;;8.30;;
7703;SDS011;3894;49.700;10.770;2023-06-19T04:19:08;10.73;;;7.72;;
7703;SDS011;3894;49.700;10.770;2023-06-19T04:21:35;11.35;;;8.60;;
7703;SDS011;3894;49.700;10.770;2023-06-19T04:24:01;11.30;;;8.55;;
7703;SDS011;3894;49.700;10.770;2023-06-19T04:26:33;12.50;;;8.52;;
7703;SDS011;3894;49.700;10.770;2023-06-19T04:29:00;12.50;;;8.07;;
7703;SDS011;3894;49.700;10.770;2023-06-19T04:31:28;10.98;;;8.38;;
7703;SDS011;3894;49.700;10.770;2023-06-19T04:33:55;11.35;;;7.25;;
7703;SDS011;3894;49.700;10.770;2023-06-19T04:36:21;14.60;;;9.20;;
7703;SDS011;3894;49.700;10.770;2023-06-19T04:38:47;11.57;;;8.25;;
7703;SDS011;3894;49.700;10.770;2023-06-19T04:41:13;12.88;;;9.05;;
7703;SDS011;3894;49.700;10.770;2023-06-19T04:43:39;11.73;;;8.48;;
7703;SDS011;3894;49.700;10.770;2023-06-19T04:46:06;10.18;;;7.93;;
7703;SDS011;3894;49.700;10.770;2023-06-19T04:48:33;11.00;;;7.93;;
7703;SDS011;3894;49.700;10.770;2023-06-19T04:51:01;12.25;;;9.13;;
7703;SDS011;3894;49.700;10.770;2023-06-19T04:53:27;11.10;;;8.18;;
7703;SDS011;3894;49.700;10.770;2023-06-19T04:55:53;12.35;;;8.93;;
7703;SDS011;3894;49.700;10.770;2023-06-19T04:58:20;12.02;;;8.75;;
7703;SDS011;3894;49.700;10.770;2023-06-19T05:00:46;11.60;;;8.18;;
7703;SDS011;3894;49.700;10.770;2023-06-19T05:03:16;12.45;;;8.70;;
7703;SDS011;3894;49.700;10.770;2023-06-19T05:05:43;11.90;;;8.75;;
7703;SDS011;3894;49.700;10.770;2023-06-19T05:08:09;12.73;;;8.75;;
7703;SDS011;3894;49.700;10.770;2023-06-19T05:10:35;11.27;;;8.82;;
7703;SDS011;3894;49.700;10.770;2023-06-19T05:13:01;12.90;;;9.45;;
7703;SDS011;3894;49.700;10.770;2023-06-19T05:15:27;11.52;;;8.90;;
7703;SDS011;3894;49.700;10.770;2023-06-19T05:17:53;11.90;;;8.70;;
7703;SDS011;3894;49.700;10.770;2023-06-19T05:20:19;11.68;;;8.77;;
7703;SDS011;3894;49.700;10.770;2023-06-19T05:22:44;10.93;;;8.55;;
7703;SDS011;3894;49.700;10.770;2023-06-19T05:25:10;12.30;;;8.80;;
7703;SDS011;3894;49.700;10.770;2023-06-19T05:27:37;11.82;;;9.02;;
7703;SDS011;3894;49.700;10.770;2023-06-19T05:30:03;11.48;;;8.73;;
7703;SDS011;3894;49.700;10.770;2023-06-19T05:32:29;12.13;;;8.63;;
7703;SDS011;3894;49.700;10.770;2023-06-19T05:34:55;11.98;;;9.52;;
7703;SDS011;3894;49.700;10.770;2023-06-19T05:37:21;12.07;;;9.20;;
7703;SDS011;3894;49.700;10.770;2023-06-19T05:39:47;12.50;;;8.60;;
7703;SDS011;3894;49.700;10.770;2023-06-19T05:42:13;20.35;;;10.20;;
7703;SDS011;3894;49.700;10.770;2023-06-19T05:44:40;13.63;;;10.18;;
7703;SDS011;3894;49.700;10.770;2023-06-19T05:47:05;14.00;;;8.75;;
7703;SDS011;3894;49.700;10.770;2023-06-19T05:49:31;21.08;;;9.48;;
7703;SDS011;3894;49.700;10.770;2023-06-19T05:51:57;18.75;;;10.38;;
7703;SDS011;3894;49.700;10.770;2023-06-19T05:54:26;14.90;;;8.07;;
7703;SDS011;3894;49.700;10.770;2023-06-19T05:56:53;16.23;;;9.90;;
7703;SDS011;3894;49.700;10.770;2023-06-19T05:59:18;16.45;;;9.48;;
7703;SDS011;3894;49.700;10.770;2023-06-19T06:01:44;15.35;;;10.13;;
7703;SDS011;3894;49.700;10.770;2023-06-19T06:04:09;14.98;;;9.50;;
7703;SDS011;3894;49.700;10.770;2023-06-19T06:06:35;14.60;;;9.00;;
7703;SDS011;3894;49.700;10.770;2023-06-19T06:09:00;14.02;;;9.52;;
7703;SDS011;3894;49.700;10.770;2023-06-19T06:11:26;13.07;;;10.38;;
7703;SDS011;3894;49.700;10.770;2023-06-19T06:13:51;12.88;;;9.70;;
7703;SDS011;3894;49.700;10.770;2023-06-19T06:16:17;11.63;;;8.55;;
7703;SDS011;3894;49.700;10.770;2023-06-19T06:18:44;10.63;;;7.35;;
7703;SDS011;3894;49.700;10.770;2023-06-19T06:21:10;11.52;;;7.22;;
7703;SDS011;3894;49.700;10.770;2023-06-19T06:26:06;9.20;;;5.53;;
7703;SDS011;3894;49.700;10.770;2023-06-19T06:28:32;9.38;;;5.32;;
7703;SDS011;3894;49.700;10.770;2023-06-19T06:30:57;7.18;;;4.75;;
7703;SDS011;3894;49.700;10.770;2023-06-19T06:33:24;7.70;;;4.93;;
7703;SDS011;3894;49.700;10.770;2023-06-19T06:35:50;10.75;;;5.53;;
7703;SDS011;3894;49.700;10.770;2023-06-19T06:38:17;8.48;;;5.15;;
7703;SDS011;3894;49.700;10.770;2023-06-19T06:40:42;8.23;;;4.38;;
7703;SDS011;3894;49.700;10.770;2023-06-19T06:43:08;8.23;;;4.78;;
7703;SDS011;3894;49.700;10.770;2023-06-19T06:45:34;9.15;;;4.97;;
7703;SDS011;3894;49.700;10.770;2023-06-19T06:47:59;7.80;;;5.00;;
7703;SDS011;3894;49.700;10.770;2023-06-19T06:50:25;8.85;;;5.25;;
7703;SDS011;3894;49.700;10.770;2023-06-19T06:52:50;9.52;;;5.10;;
7703;SDS011;3894;49.700;10.770;2023-06-19T06:55:16;8.25;;;5.38;;
7703;SDS011;3894;49.700;10.770;2023-06-19T06:57:41;7.68;;;4.07;;
7703;SDS011;3894;49.700;10.770;2023-06-19T07:00:07;8.15;;;5.15;;
7703;SDS011;3894;49.700;10.770;2023-06-19T07:02:35;8.57;;;4.70;;
7703;SDS011;3894;49.700;10.770;2023-06-19T07:05:02;6.72;;;4.38;;
7703;SDS011;3894;49.700;10.770;2023-06-19T07:07:27;8.23;;;5.03;;
7703;SDS011;3894;49.700;10.770;2023-06-19T07:09:53;7.20;;;4.60;;
7703;SDS011;3894;49.700;10.770;2023-06-19T07:12:18;9.10;;;5.38;;
7703;SDS011;3894;49.700;10.770;2023-06-19T07:14:44;7.28;;;4.82;;
7703;SDS011;3894;49.700;10.770;2023-06-19T07:17:09;9.32;;;4.25;;
7703;SDS011;3894;49.700;10.770;2023-06-19T07:19:35;8.70;;;4.82;;
7703;SDS011;3894;49.700;10.770;2023-06-19T07:22:02;7.82;;;4.35;;
7703;SDS011;3894;49.700;10.770;2023-06-19T07:24:28;7.50;;;5.00;;
7703;SDS011;3894;49.700;10.770;2023-06-19T07:26:54;7.35;;;4.88;;
7703;SDS011;3894;49.700;10.770;2023-06-19T07:29:20;7.55;;;4.30;;
7703;SDS011;3894;49.700;10.770;2023-06-19T07:31:46;8.15;;;4.50;;
7703;SDS011;3894;49.700;10.770;2023-06-19T07:34:13;8.30;;;4.53;;
7703;SDS011;3894;49.700;10.770;2023-06-19T07:36:38;9.65;;;4.13;;
7703;SDS011;3894;49.700;10.770;2023-06-19T07:39:04;8.85;;;4.53;;
7703;SDS011;3894;49.700;10.770;2023-06-19T07:41:33;7.78;;;3.92;;
7703;SDS011;3894;49.700;10.770;2023-06-19T07:43:59;8.63;;;4.85;;
7703;SDS011;3894;49.700;10.770;2023-06-19T07:46:24;6.63;;;4.25;;
7703;SDS011;3894;49.700;10.770;2023-06-19T07:48:51;7.05;;;3.85;;
7703;SDS011;3894;49.700;10.770;2023-06-19T07:51:18;7.30;;;3.55;;
7703;SDS011;3894;49.700;10.770;2023-06-19T07:53:44;6.85;;;3.70;;
7703;SDS011;3894;49.700;10.770;2023-06-19T07:56:09;8.27;;;3.38;;
7703;SDS011;3894;49.700;10.770;2023-06-19T07:58:36;6.57;;;3.92;;
7703;SDS011;3894;49.700;10.770;2023-06-19T08:01:01;6.35;;;3.83;;
7703;SDS011;3894;49.700;10.770;2023-06-19T08:03:27;5.65;;;3.20;;
7703;SDS011;3894;49.700;10.770;2023-06-19T08:05:53;7.05;;;3.55;;
7703;SDS011;3894;49.700;10.770;2023-06-19T08:08:18;7.68;;;3.65;;
7703;SDS011;3894;49.700;10.770;2023-06-19T08:10:44;7.78;;;3.70;;
7703;SDS011;3894;49.700;10.770;2023-06-19T08:13:09;7.03;;;3.53;;
7703;SDS011;3894;49.700;10.770;2023-06-19T08:15:36;6.05;;;3.22;;
7703;SDS011;3894;49.700;10.770;2023-06-19T08:18:02;7.72;;;3.70;;
7703;SDS011;3894;49.700;10.770;2023-06-19T08:20:29;7.25;;;3.60;;
7703;SDS011;3894;49.700;10.770;2023-06-19T08:22:54;5.85;;;2.88;;
7703;SDS011;3894;49.700;10.770;2023-06-19T08:25:21;5.35;;;2.80;;
7703;SDS011;3894;49.700;10.770;2023-06-19T08:27:47;6.18;;;3.10;;
7703;SDS011;3894;49.700;10.770;2023-06-19T08:30:13;6.63;;;3.22;;
7703;SDS011;3894;49.700;10.770;2023-06-19T08:32:39;6.88;;;2.55;;
7703;SDS011;3894;49.700;10.770;2023-06-19T08:35:04;5.63;;;3.47;;
7703;SDS011;3894;49.700;10.770;2023-06-19T08:37:30;6.47;;;3.25;;
7703;SDS011;3894;49.700;10.770;2023-06-19T08:39:56;6.47;;;3.42;;
7703;SDS011;3894;49.700;10.770;2023-06-19T08:42:22;5.10;;;2.50;;
7703;SDS011;3894;49.700;10.770;2023-06-19T08:44:48;6.13;;;3.15;;
7703;SDS011;3894;49.700;10.770;2023-06-19T08:47:14;5.97;;;2.70;;
7703;SDS011;3894;49.700;10.770;2023-06-19T08:49:39;5.45;;;2.78;;
7703;SDS011;3894;49.700;10.770;2023-06-19T08:52:05;5.07;;;2.47;;
7703;SDS011;3894;49.700;10.770;2023-06-19T08:54:32;5.25;;;2.55;;
7703;SDS011;3894;49.700;10.770;2023-06-19T08:57:01;6.72;;;2.90;;
7703;SDS011;3894;49.700;10.770;2023-06-19T08:59:27;9.23;;;4.25;;
7703;SDS011;3894;49.700;10.770;2023-06-19T09:01:56;6.43;;;2.97;;
7703;SDS011;3894;49.700;10.770;2023-06-19T09:04:24;8.18;;;2.45;;
7703;SDS011;3894;49.700;10.770;2023-06-19T09:06:56;6.05;;;3.00;;
7703;SDS011;3894;49.700;10.770;2023-06-19T09:09:25;5.82;;;2.67;;
7703;SDS011;3894;49.700;10.770;2023-06-19T09:12:02;6.00;;;2.97;;
7703;SDS011;3894;49.700;10.770;2023-06-19T09:14:33;5.88;;;2.67;;
7703;SDS011;3894;49.700;10.770;2023-06-19T09:17:01;6.15;;;2.80;;
7703;SDS011;3894;49.700;10.770;2023-06-19T09:19:27;5.82;;;2.50;;
7703;SDS011;3894;49.700;10.770;2023-06-19T09:21:53;5.35;;;2.28;;
7703;SDS011;3894;49.700;10.770;2023-06-19T09:24:32;6.72;;;3.90;;
7703;SDS011;3894;49.700;10.770;2023-06-19T09:27:09;6.20;;;2.97;;
7703;SDS011;3894;49.700;10.770;2023-06-19T09:29:39;6.47;;;3.20;;
7703;SDS011;3894;49.700;10.770;2023-06-19T09:34:40;9.15;;;3.35;;
7703;SDS011;3894;49.700;10.770;2023-06-19T09:37:06;5.85;;;2.97;;
7703;SDS011;3894;49.700;10.770;2023-06-19T09:39:34;7.03;;;2.95;;
7703;SDS011;3894;49.700;10.770;2023-06-19T09:42:02;6.65;;;3.25;;
7703;SDS011;3894;49.700;10.770;2023-06-19T09:44:29;5.55;;;2.20;;
7703;SDS011;3894;49.700;10.770;2023-06-19T09:46:56;5.50;;;2.88;;
7703;SDS011;3894;49.700;10.770;2023-06-19T09:49:27;6.03;;;2.78;;
7703;SDS011;3894;49.700;10.770;2023-06-19T09:51:57;6.03;;;2.95;;
7703;SDS011;3894;49.700;10.770;2023-06-19T09:54:23;5.68;;;2.95;;
7703;SDS011;3894;49.700;10.770;2023-06-19T09:56:50;5.68;;;2.50;;
7703;SDS011;3894;49.700;10.770;2023-06-19T09:59:23;5.85;;;3.00;;
7703;SDS011;3894;49.700;10.770;2023-06-19T10:01:49;5.60;;;2.78;;
7703;SDS011;3894;49.700;10.770;2023-06-19T10:04:15;5.50;;;2.53;;
7703;SDS011;3894;49.700;10.770;2023-06-19T10:06:44;6.70;;;3.03;;
7703;SDS011;3894;49.700;10.770;2023-06-19T10:09:11;5.40;;;2.92;;
7703;SDS011;3894;49.700;10.770;2023-06-19T10:11:45;6.85;;;2.80;;
7703;SDS011;3894;49.700;10.770;2023-06-19T10:14:20;5.72;;;3.08;;
7703;SDS011;3894;49.700;10.770;2023-06-19T10:16:47;6.80;;;3.17;;
7703;SDS011;3894;49.700;10.770;2023-06-19T10:19:16;5.15;;;3.10;;
7703;SDS011;3894;49.700;10.770;2023-06-19T10:21:47;6.22;;;2.40;;
7703;SDS011;3894;49.700;10.770;2023-06-19T10:24:17;6.68;;;3.80;;
7703;SDS011;3894;49.700;10.770;2023-06-19T10:26:54;5.90;;;3.08;;
7703;SDS011;3894;49.700;10.770;2023-06-19T10:31:50;6.45;;;3.10;;
7703;SDS011;3894;49.700;10.770;2023-06-19T10:34:16;6.80;;;3.55;;
7703;SDS011;3894;49.700;10.770;2023-06-19T10:36:41;6.57;;;3.55;;
7703;SDS011;3894;49.700;10.770;2023-06-19T10:39:07;5.80;;;2.92;;
7703;SDS011;3894;49.700;10.770;2023-06-19T10:41:33;5.97;;;3.45;;
7703;SDS011;3894;49.700;10.770;2023-06-19T10:44:02;7.55;;;2.95;;
7703;SDS011;3894;49.700;10.770;2023-06-19T10:46:30;6.57;;;3.75;;
7703;SDS011;3894;49.700;10.770;2023-06-19T10:48:57;5.75;;;4.00;;
7703;SDS011;3894;49.700;10.770;2023-06-19T10:51:26;5.50;;;2.83;;
7703;SDS011;3894;49.700;10.770;2023-06-19T10:53:53;5.70;;;3.55;;
7703;SDS011;3894;49.700;10.770;2023-06-19T10:56:21;5.90;;;2.95;;
7703;SDS011;3894;49.700;10.770;2023-06-19T10:58:48;5.35;;;3.55;;
7703;SDS011;3894;49.700;10.770;2023-06-19T11:01:13;7.10;;;3.22;;
7703;SDS011;3894;49.700;10.770;2023-06-19T11:03:39;6.22;;;2.53;;
7703;SDS011;3894;49.700;10.770;2023-06-19T11:06:05;5.70;;;3.47;;
7703;SDS011;3894;49.700;10.770;2023-06-19T11:08:30;6.07;;;3.72;;
7703;SDS011;3894;49.700;10.770;2023-06-19T11:10:56;5.15;;;3.05;;
7703;SDS011;3894;49.700;10.770;2023-06-19T11:13:22;6.75;;;3.42;;
7703;SDS011;3894;49.700;10.770;2023-06-19T11:15:48;5.90;;;3.35;;
7703;SDS011;3894;49.700;10.770;2023-06-19T11:18:15;6.40;;;4.18;;
7703;SDS011;3894;49.700;10.770;2023-06-19T11:20:51;8.57;;;3.80;;
7703;SDS011;3894;49.700;10.770;2023-06-19T11:23:27;8.27;;;4.25;;
7703;SDS011;3894;49.700;10.770;2023-06-19T11:25:54;5.65;;;3.28;;
7703;SDS011;3894;49.700;10.770;2023-06-19T11:28:27;6.05;;;3.33;;
7703;SDS011;3894;49.700;10.770;2023-06-19T11:31:03;6.35;;;3.85;;
7703;SDS011;3894;49.700;10.770;2023-06-19T11:33:29;7.95;;;4.05;;
7703;SDS011;3894;49.700;10.770;2023-06-19T11:35:58;6.10;;;3.55;;
7703;SDS011;3894;49.700;10.770;2023-06-19T11:38:26;5.25;;;2.85;;
7703;SDS011;3894;49.700;10.770;2023-06-19T11:40:52;5.00;;;3.22;;
7703;SDS011;3894;49.700;10.770;2023-06-19T11:43:29;5.18;;;3.05;;
7703;SDS011;3894;49.700;10.770;2023-06-19T11:46:02;5.50;;;3.55;;
7703;SDS011;3894;49.700;10.770;2023-06-19T11:48:29;10.75;;;3.67;;
7703;SDS011;3894;49.700;10.770;2023-06-19T11:50:55;8.52;;;3.90;;
7703;SDS011;3894;49.700;10.770;2023-06-19T11:53:21;5.53;;;3.55;;
7703;SDS011;3894;49.700;10.770;2023-06-19T11:55:48;6.43;;;3.67;;
7703;SDS011;3894;49.700;10.770;2023-06-19T11:58:14;8.60;;;4.63;;
7703;SDS011;3894;49.700;10.770;2023-06-19T12:00:40;6.55;;;4.00;;
7703;SDS011;3894;49.700;10.770;2023-06-19T12:03:06;6.43;;;4.18;;
7703;SDS011;3894;49.700;10.770;2023-06-19T12:05:33;5.90;;;4.10;;
7703;SDS011;3894;49.700;10.770;2023-06-19T12:07:59;6.57;;;4.18;;
7703;SDS011;3894;49.700;10.770;2023-06-19T12:10:29;5.75;;;3.75;;
7703;SDS011;3894;49.700;10.770;2023-06-19T12:12:58;6.35;;;4.75;;
7703;SDS011;3894;49.700;10.770;2023-06-19T12:15:24;5.93;;;3.72;;
7703;SDS011;3894;49.700;10.770;2023-06-19T12:17:50;10.30;;;4.63;;
7703;SDS011;3894;49.700;10.770;2023-06-19T12:20:16;6.78;;;4.70;;
7703;SDS011;3894;49.700;10.770;2023-06-19T12:22:41;5.70;;;3.83;;
7703;SDS011;3894;49.700;10.770;2023-06-19T12:25:07;7.22;;;4.30;;
7703;SDS011;3894;49.700;10.770;2023-06-19T12:27:33;6.05;;;4.10;;
7703;SDS011;3894;49.700;10.770;2023-06-19T12:29:59;8.90;;;5.35;;
7703;SDS011;3894;49.700;10.770;2023-06-19T12:32:24;5.68;;;4.10;;
7703;SDS011;3894;49.700;10.770;2023-06-19T12:34:50;6.38;;;4.03;;
7703;SDS011;3894;49.700;10.770;2023-06-19T12:37:19;7.63;;;4.32;;
7703;SDS011;3894;49.700;10.770;2023-06-19T12:39:45;6.15;;;3.88;;
7703;SDS011;3894;49.700;10.770;2023-06-19T12:42:11;6.90;;;4.05;;
7703;SDS011;3894;49.700;10.770;2023-06-19T12:44:37;6.35;;;3.75;;
7703;SDS011;3894;49.700;10.770;2023-06-19T12:47:04;6.00;;;3.97;;
7703;SDS011;3894;49.700;10.770;2023-06-19T12:49:30;5.80;;;4.28;;
7703;SDS011;3894;49.700;10.770;2023-06-19T12:51:56;8.20;;;4.68;;
7703;SDS011;3894;49.700;10.770;2023-06-19T12:54:22;8.15;;;5.18;;
7703;SDS011;3894;49.700;10.770;2023-06-19T12:56:51;6.47;;;4.82;;
7703;SDS011;3894;49.700;10.770;2023-06-19T12:59:16;6.22;;;3.78;;
7703;SDS011;3894;49.700;10.770;2023-06-19T13:01:42;7.57;;;4.35;;
7703;SDS011;3894;49.700;10.770;2023-06-19T13:04:09;6.63;;;4.60;;
7703;SDS011;3894;49.700;10.770;2023-06-19T13:06:36;6.35;;;4.22;;
7703;SDS011;3894;49.700;10.770;2023-06-19T13:09:02;6.30;;;4.00;;
7703;SDS011;3894;49.700;10.770;2023-06-19T13:11:30;7.18;;;4.22;;
7703;SDS011;3894;49.700;10.770;2023-06-19T13:13:55;13.48;;;5.05;;
7703;SDS011;3894;49.700;10.770;2023-06-19T13:16:21;6.93;;;3.97;;
7703;SDS011;3894;49.700;10.770;2023-06-19T13:18:49;5.75;;;3.65;;
7703;SDS011;3894;49.700;10.770;2023-06-19T13:21:14;6.22;;;4.00;;
7703;SDS011;3894;49.700;10.770;2023-06-19T13:23:40;6.22;;;4.30;;
7703;SDS011;3894;49.700;10.770;2023-06-19T13:26:06;6.63;;;4.13;;
7703;SDS011;3894;49.700;10.770;2023-06-19T13:28:32;6.13;;;4.43;;
7703;SDS011;3894;49.700;10.770;2023-06-19T13:30:57;5.30;;;3.75;;
7703;SDS011;3894;49.700;10.770;2023-06-19T13:33:23;6.25;;;4.47;;
7703;SDS011;3894;49.700;10.770;2023-06-19T13:35:49;6.40;;;3.92;;
7703;SDS011;3894;49.700;10.770;2023-06-19T13:38:14;6.43;;;4.43;;
7703;SDS011;3894;49.700;10.770;2023-06-19T13:40:40;5.25;;;4.00;;
7703;SDS011;3894;49.700;10.770;2023-06-19T13:43:08;5.38;;;3.88;;
7703;SDS011;3894;49.700;10.770;2023-06-19T13:45:33;7.20;;;4.63;;
7703;SDS011;3894;49.700;10.770;2023-06-19T13:47:59;6.45;;;3.70;;
7703;SDS011;3894;49.700;10.770;2023-06-19T13:50:26;8.00;;;3.97;;
7703;SDS011;3894;49.700;10.770;2023-06-19T13:52:52;6.35;;;3.85;;
7703;SDS011;3894;49.700;10.770;2023-06-19T13:57:45;5.55;;;3.65;;
7703;SDS011;3894;49.700;10.770;2023-06-19T14:00:10;5.05;;;3.65;;
7703;SDS011;3894;49.700;10.770;2023-06-19T14:02:38;6.05;;;3.60;;
7703;SDS011;3894;49.700;10.770;2023-06-19T14:05:05;5.53;;;3.60;;
7703;SDS011;3894;49.700;10.770;2023-06-19T14:07:32;5.40;;;3.85;;
7703;SDS011;3894;49.700;10.770;2023-06-19T14:09:58;5.97;;;4.05;;
7703;SDS011;3894;49.700;10.770;2023-06-19T14:12:23;6.38;;;4.43;;
7703;SDS011;3894;49.700;10.770;2023-06-19T14:14:49;10.23;;;4.65;;
7703;SDS011;3894;49.700;10.770;2023-06-19T14:17:14;7.20;;;3.92;;
7703;SDS011;3894;49.700;10.770;2023-06-19T14:19:40;8.02;;;4.70;;
7703;SDS011;3894;49.700;10.770;2023-06-19T14:22:06;5.25;;;3.45;;
7703;SDS011;3894;49.700;10.770;2023-06-19T14:24:31;5.35;;;3.85;;
7703;SDS011;3894;49.700;10.770;2023-06-19T14:26:57;5.35;;;4.22;;
7703;SDS011;3894;49.700;10.770;2023-06-19T14:29:22;5.47;;;3.95;;
7703;SDS011;3894;49.700;10.770;2023-06-19T14:31:50;5.80;;;3.58;;
7703;SDS011;3894;49.700;10.770;2023-06-19T14:34:16;6.43;;;4.25;;
7703;SDS011;3894;49.700;10.770;2023-06-19T14:36:43;9.98;;;4.43;;
7703;SDS011;3894;49.700;10.770;2023-06-19T14:39:09;5.88;;;4.40;;
7703;SDS011;3894;49.700;10.770;2023-06-19T14:41:36;6.70;;;4.15;;
7703;SDS011;3894;49.700;10.770;2023-06-19T14:44:02;6.57;;;4.63;;
7703;SDS011;3894;49.700;10.770;2023-06-19T14:48:54;7.60;;;4.13;;
7703;SDS011;3894;49.700;10.770;2023-06-19T14:51:20;5.18;;;3.80;;
7703;SDS011;3894;49.700;10.770;2023-06-19T14:53:46;6.57;;;3.75;;
7703;SDS011;3894;49.700;10.770;2023-06-19T14:56:12;6.28;;;4.57;;
7703;SDS011;3894;49.700;10.770;2023-06-19T14:58:37;5.97;;;4.43;;
7703;SDS011;3894;49.700;10.770;2023-06-19T15:01:03;6.65;;;4.30;;
7703;SDS011;3894;49.700;10.770;2023-06-19T15:03:28;7.15;;;4.78;;
7703;SDS011;3894;49.700;10.770;2023-06-19T15:05:54;6.82;;;4.65;;
7703;SDS011;3894;49.700;10.770;2023-06-19T15:08:19;6.60;;;3.90;;
7703;SDS011;3894;49.700;10.770;2023-06-19T15:10:47;8.98;;;5.00;;